Time;durP1;ratioP1;P1;durP2;ratioP2;P2;SDS_P1;SDS_P2;PMS_P1;PMS_P2;Temp;Humidity;BMP_temperature;BMP_pressure;BME280_temperature;BME280_humidity;BME280_pressure;Samples;Min_cycle;Max_cycle;Signal;HPM_P1;HPM_P2
2023/04/23 00:01:50;;;;;;;15.98;8.65;;;;;;;15.11;84.14;99305.81;4976635;28;20144;-88
2023/04/23 00:04:18;;;;;;;16.58;8.95;;;;;;;15.05;84.61;99294.00;4963395;28;20061;-88
2023/04/23 00:06:47;;;;;;;24.70;8.98;;;;;;;15.09;84.58;99299.84;5011966;28;20458;-88
2023/04/23 00:09:21;;;;;;;20.85;9.45;;;;;;;15.05;85.03;99291.31;4979731;28;21316;-88
2023/04/23 00:11:55;;;;;;;17.10;8.52;;;;;;;15.05;85.18;99299.34;4956229;28;20079;-88
2023/04/23 00:14:22;;;;;;;18.20;8.88;;;;;;;15.05;84.93;99290.50;4967483;28;20418;-89
2023/04/23 00:16:58;;;;;;;17.02;8.18;;;;;;;14.97;85.49;99302.91;4945939;28;20048;-88
2023/04/23 00:19:34;;;;;;;18.67;8.50;;;;;;;14.95;85.66;99296.06;4928640;28;20091;-88
2023/04/23 00:22:15;;;;;;;13.88;8.75;;;;;;;14.98;85.40;99301.91;4922413;28;20131;-88
2023/04/23 00:24:58;;;;;;;16.88;9.15;;;;;;;14.95;85.61;99304.09;4950487;28;20363;-87
2023/04/23 00:28:16;;;;;;;18.85;9.25;;;;;;;14.88;86.20;99297.78;4925581;28;20045;-88
2023/04/23 00:30:51;;;;;;;25.13;8.43;;;;;;;14.86;86.50;99300.66;4876763;28;20137;-88
2023/04/23 00:33:29;;;;;;;16.73;8.43;;;;;;;14.90;86.25;99298.44;4938599;28;20057;-87
2023/04/23 00:36:09;;;;;;;22.15;8.95;;;;;;;14.94;86.22;99305.09;4865117;28;20057;-87
2023/04/23 00:38:41;;;;;;;19.80;8.20;;;;;;;14.90;86.09;99301.94;4904214;28;20042;-88
2023/04/23 00:41:52;;;;;;;16.77;7.90;;;;;;;14.92;86.16;99305.28;4915004;28;20046;-88
2023/04/23 00:44:31;;;;;;;18.15;8.05;;;;;;;14.85;87.00;99298.97;4937002;28;20111;-87
2023/04/23 00:47:12;;;;;;;15.20;7.78;;;;;;;14.89;87.04;99308.31;4934333;28;20132;-87
2023/04/23 00:49:49;;;;;;;19.70;8.18;;;;;;;14.81;87.91;99311.03;4892047;28;20050;-87
2023/04/23 00:52:34;;;;;;;21.50;9.35;;;;;;;14.89;87.20;99305.63;4939269;28;20072;-88
2023/04/23 00:55:05;;;;;;;22.52;10.50;;;;;;;14.95;86.84;99312.09;4907027;28;20116;-88
2023/04/23 00:57:50;;;;;;;22.40;10.77;;;;;;;14.83;87.43;99298.28;4923199;28;20534;-86
2023/04/23 01:00:21;;;;;;;16.92;8.88;;;;;;;14.94;86.48;99307.78;4969132;28;20042;-88
2023/04/23 01:02:57;;;;;;;19.85;9.35;;;;;;;14.91;86.41;99308.13;4968142;28;21431;-88
2023/04/23 01:05:27;;;;;;;18.10;9.57;;;;;;;14.87;86.83;99304.97;4955057;28;20509;-87
2023/04/23 01:08:04;;;;;;;20.92;10.25;;;;;;;14.85;87.07;99311.50;4963565;28;20053;-87
2023/04/23 01:10:31;;;;;;;21.17;10.80;;;;;;;14.85;87.06;99311.50;4899555;28;20053;-87
2023/04/23 01:13:00;;;;;;;16.50;9.20;;;;;;;14.84;87.66;99305.31;4956827;28;20277;-87
2023/04/23 01:15:32;;;;;;;23.85;10.13;;;;;;;14.87;87.31;99310.31;4957330;28;20048;-87
2023/04/23 01:18:11;;;;;;;28.35;12.45;;;;;;;14.91;86.68;99305.47;4954066;28;20411;-87
2023/04/23 01:20:42;;;;;;;25.80;11.60;;;;;;;14.85;87.19;99316.84;4975597;28;20050;-86
2023/04/23 01:23:09;;;;;;;26.92;12.25;;;;;;;14.89;86.70;99304.81;4971838;28;20060;-88
2023/04/23 01:25:40;;;;;;;23.42;10.77;;;;;;;14.85;86.96;99315.00;5008409;28;20050;-87
2023/04/23 01:28:07;;;;;;;21.80;11.68;;;;;;;14.86;86.85;99308.66;4955318;28;20081;-87
2023/04/23 01:30:35;;;;;;;22.35;10.32;;;;;;;14.86;86.75;99316.69;4979540;28;20045;-87
2023/04/23 01:33:05;;;;;;;27.75;11.77;;;;;;;14.84;87.11;99302.66;4943488;28;20046;-86
2023/04/23 01:35:35;;;;;;;21.58;11.20;;;;;;;14.75;87.61;99315.22;4978931;28;20445;-87
2023/04/23 01:38:08;;;;;;;27.00;12.27;;;;;;;14.86;86.50;99316.69;4975333;28;20056;-87
2023/04/23 01:40:36;;;;;;;33.80;14.10;;;;;;;14.88;86.27;99306.66;4995976;28;20533;-87
2023/04/23 01:43:06;;;;;;;22.48;11.63;;;;;;;14.90;86.10;99311.81;4971059;28;20053;-87
2023/04/23 01:45:33;;;;;;;31.90;13.98;;;;;;;14.93;85.68;99306.94;4970110;28;20432;-87
2023/04/23 01:48:00;;;;;;;25.45;12.35;;;;;;;14.94;85.43;99308.59;4977420;28;20131;-87
2023/04/23 01:50:28;;;;;;;28.10;12.93;;;;;;;15.01;84.66;99311.41;4967843;28;20072;-87
2023/04/23 01:52:56;;;;;;;29.35;12.98;;;;;;;14.96;84.87;99306.59;4956613;28;20053;-88
2023/04/23 01:55:26;;;;;;;26.55;13.32;;;;;;;14.95;85.05;99310.25;4937792;28;20049;-87
2023/04/23 01:57:56;;;;;;;25.48;13.13;;;;;;;14.89;85.37;99308.31;4966451;28;20124;-87
2023/04/23 02:00:31;;;;;;;25.50;13.93;;;;;;;14.95;85.23;99323.63;4982480;28;20088;-88
2023/04/23 02:03:02;;;;;;;32.10;13.85;;;;;;;14.95;85.37;99320.13;4979452;28;20057;-87
2023/04/23 02:05:35;;;;;;;32.53;15.90;;;;;;;14.97;84.74;99324.28;4963941;28;20211;-86
2023/04/23 02:08:08;;;;;;;34.15;13.35;;;;;;;14.96;84.59;99317.28;4961360;28;20123;-87
2023/04/23 02:10:38;;;;;;;27.25;14.23;;;;;;;15.04;84.23;99320.94;5004010;28;20053;-87
2023/04/23 02:13:05;;;;;;;27.17;14.25;;;;;;;15.06;84.14;99326.91;4997072;28;20045;-87
2023/04/23 02:15:32;;;;;;;32.65;14.50;;;;;;;15.05;84.44;99330.59;4961378;28;20046;-87
2023/04/23 02:18:00;;;;;;;26.92;13.73;;;;;;;15.08;83.90;99333.75;4963964;28;20048;-87
2023/04/23 02:20:27;;;;;;;31.40;13.48;;;;;;;15.06;83.62;99332.25;4963020;28;20069;-87
2023/04/23 02:22:55;;;;;;;27.98;14.18;;;;;;;15.02;83.85;99329.09;4977966;28;20052;-87
2023/04/23 02:25:25;;;;;;;33.67;13.77;;;;;;;15.03;83.89;99328.09;4985737;28;20053;-87
2023/04/23 02:27:52;;;;;;;30.73;12.43;;;;;;;15.03;84.03;99344.13;4991975;28;20060;-88
2023/04/23 02:30:19;;;;;;;29.05;13.65;;;;;;;15.02;84.32;99347.81;5008621;28;20128;-87
2023/04/23 02:32:46;;;;;;;31.25;13.70;;;;;;;14.95;84.78;99334.31;4965564;28;20045;-87
2023/04/23 02:35:16;;;;;;;24.83;13.02;;;;;;;14.92;85.06;99334.69;4965445;28;20531;-87
2023/04/23 02:37:43;;;;;;;30.63;13.32;;;;;;;14.96;84.70;99333.34;4982590;28;20065;-87
2023/04/23 02:40:10;;;;;;;27.00;13.48;;;;;;;15.00;84.20;99341.00;4998529;28;20306;-87
2023/04/23 02:42:37;;;;;;;24.27;12.57;;;;;;;15.02;83.58;99325.63;4985396;28;20041;-87
2023/04/23 02:45:06;;;;;;;26.02;12.52;;;;;;;14.94;84.76;99335.34;4983268;28;20057;-87
2023/04/23 02:47:36;;;;;;;23.88;12.65;;;;;;;14.94;84.34;99321.16;5008574;28;20095;-87
2023/04/23 02:50:07;;;;;;;31.17;13.38;;;;;;;14.96;84.37;99325.31;4987534;28;20052;-87
2023/04/23 02:52:37;;;;;;;24.85;12.38;;;;;;;14.97;84.18;99323.47;4966507;28;20105;-87
2023/04/23 02:55:06;;;;;;;25.25;12.93;;;;;;;14.96;84.25;99322.63;4974706;28;20053;-87
2023/04/23 02:57:34;;;;;;;29.70;13.60;;;;;;;14.98;84.49;99319.75;4970130;28;20049;-87
2023/04/23 03:00:05;;;;;;;27.77;12.77;;;;;;;14.98;83.86;99319.75;4971976;28;20104;-87
2023/04/23 03:02:38;;;;;;;35.60;13.82;;;;;;;14.98;84.04;99323.28;4978188;28;20092;-87
2023/04/23 03:05:06;;;;;;;29.40;12.75;;;;;;;14.87;84.75;99318.34;4983515;28;20136;-87
2023/04/23 03:07:33;;;;;;;27.73;13.13;;;;;;;14.90;85.11;99322.50;4972410;28;20648;-87
2023/04/23 03:10:00;;;;;;;26.42;12.68;;;;;;;14.88;84.66;99324.50;5013596;28;20141;-87
2023/04/23 03:12:27;;;;;;;28.23;12.68;;;;;;;14.89;84.86;99331.53;4990758;28;20399;-88
2023/04/23 03:14:54;;;;;;;26.13;13.82;;;;;;;14.85;85.14;99330.22;4967714;28;20096;-87
2023/04/23 03:17:24;;;;;;;25.20;13.65;;;;;;;14.79;84.97;99326.41;4979223;28;20367;-87
2023/04/23 03:19:51;;;;;;;21.50;11.60;;;;;;;14.87;84.97;99333.53;4980807;28;20050;-87
2023/04/23 03:22:19;;;;;;;23.60;12.48;;;;;;;14.85;84.58;99325.69;4989114;28;20403;-87
2023/04/23 03:24:46;;;;;;;25.05;13.05;;;;;;;14.85;84.49;99335.56;4984848;28;20053;-87
2023/04/23 03:27:13;;;;;;;26.38;13.35;;;;;;;14.81;85.10;99334.22;4986261;28;20049;-87
2023/04/23 03:29:40;;;;;;;24.70;13.23;;;;;;;14.83;84.71;99338.38;4972436;28;20053;-87
2023/04/23 03:32:07;;;;;;;31.50;14.88;;;;;;;14.87;83.87;99329.03;4997016;28;20056;-86
2023/04/23 03:34:34;;;;;;;28.70;13.63;;;;;;;14.89;84.18;99335.03;4997688;28;20053;-87
2023/04/23 03:37:01;;;;;;;28.08;14.30;;;;;;;14.83;84.59;99334.88;5011933;28;20049;-87
2023/04/23 03:39:31;;;;;;;24.98;13.90;;;;;;;14.80;84.88;99328.06;4982837;28;20131;-87
2023/04/23 03:41:59;;;;;;;28.27;14.70;;;;;;;14.84;84.51;99334.72;4959747;28;20053;-87
2023/04/23 03:44:29;;;;;;;30.25;15.35;;;;;;;14.86;84.27;99329.22;4960770;28;20054;-87
2023/04/23 03:46:57;;;;;;;30.85;14.60;;;;;;;14.86;84.06;99329.22;4976046;28;20163;-88
2023/04/23 03:49:25;;;;;;;28.60;14.70;;;;;;;14.82;84.61;99328.72;5002538;28;20081;-87
2023/04/23 03:51:54;;;;;;;25.85;13.98;;;;;;;14.78;85.09;99327.41;4983527;28;20046;-87
2023/04/23 03:54:23;;;;;;;29.48;14.63;;;;;;;14.79;85.08;99326.41;4975456;28;20103;-88
2023/04/23 03:57:11;;;;;;;25.75;13.13;;;;;;;14.80;84.92;99332.56;4965467;28;20050;-87
2023/04/23 03:59:49;;;;;;;24.63;12.93;;;;;;;14.83;84.82;99334.88;4976700;28;20052;-87
2023/04/23 04:02:20;;;;;;;26.90;12.10;;;;;;;14.78;85.12;99335.41;4972207;28;20100;-87
2023/04/23 04:04:53;;;;;;;24.63;12.95;;;;;;;14.77;84.73;99334.59;4990828;28;20187;-87
2023/04/23 04:07:23;;;;;;;25.73;12.20;;;;;;;14.77;84.75;99333.75;4982699;28;20525;-87
2023/04/23 04:09:50;;;;;;;28.27;13.18;;;;;;;14.79;84.74;99345.13;5003814;28;20053;-87
2023/04/23 04:12:17;;;;;;;22.30;12.35;;;;;;;14.76;84.80;99342.78;4986241;28;20046;-88
2023/04/23 04:14:44;;;;;;;26.85;12.95;;;;;;;14.79;84.74;99350.47;4985348;28;20081;-88
2023/04/23 04:17:14;;;;;;;24.73;12.10;;;;;;;14.80;84.16;99345.94;4991705;28;20042;-87
2023/04/23 04:19:41;;;;;;;22.60;13.23;;;;;;;14.79;84.43;99349.63;4981489;28;20050;-88
2023/04/23 04:22:09;;;;;;;24.52;13.38;;;;;;;14.74;84.48;99339.47;4960808;28;20431;-87
2023/04/23 04:24:36;;;;;;;29.45;14.75;;;;;;;14.71;84.88;99355.84;4980121;28;20057;-87
2023/04/23 04:27:06;;;;;;;22.77;13.27;;;;;;;14.73;84.43;99353.81;4983938;28;20050;-87
2023/04/23 04:29:33;;;;;;;23.48;12.48;;;;;;;14.73;84.14;99349.31;4981065;28;20048;-87
2023/04/23 04:32:08;;;;;;;22.42;10.65;;;;;;;14.72;83.73;99357.50;5010694;28;20100;-87
2023/04/23 04:34:44;;;;;;;19.08;9.98;;;;;;;14.66;83.42;99352.88;4966674;28;20061;-87
2023/04/23 04:37:20;;;;;;;16.30;9.17;;;;;;;14.58;83.54;99348.41;4927872;28;20046;-87
2023/04/23 04:40:10;;;;;;;15.18;8.45;;;;;;;14.51;82.55;99356.22;4946199;28;20049;-87
2023/04/23 04:42:45;;;;;;;13.73;7.22;;;;;;;14.62;82.80;99362.22;4903435;28;20619;-87
2023/04/23 04:45:29;;;;;;;14.82;6.43;;;;;;;14.51;81.83;99368.75;4946719;28;20454;-87
2023/04/23 04:47:58;;;;;;;;;;;;;;;14.23;83.72;99374.50;4971190;28;20046;-86
2023/04/23 04:50:35;;;;;;;15.55;6.82;;;;;;;14.47;83.13;99362.91;4944189;28;20067;-87
2023/04/23 04:53:09;;;;;;;11.32;6.35;;;;;;;14.46;82.40;99363.09;4960878;28;20062;-87
2023/04/23 04:55:43;;;;;;;14.50;6.40;;;;;;;14.43;82.42;99366.13;4940202;28;20049;-87
2023/04/23 04:58:13;;;;;;;13.20;5.53;;;;;;;14.40;82.24;99363.75;4904489;28;20056;-87
2023/04/23 05:00:53;;;;;;;15.82;6.55;;;;;;;14.33;81.66;99372.47;4940228;28;20077;-86
2023/04/23 05:03:35;;;;;;;11.13;5.10;;;;;;;14.29;82.83;99370.31;4923118;28;20053;-87
2023/04/23 05:06:24;;;;;;;8.23;5.60;;;;;;;14.22;82.90;99369.31;4939903;28;20119;-87
2023/04/23 05:09:15;;;;;;;10.50;5.50;;;;;;;14.11;82.94;99365.19;4927436;28;20055;-86
2023/04/23 05:11:54;;;;;;;10.15;5.68;;;;;;;14.10;83.49;99360.84;4933574;28;20034;-87
2023/04/23 05:14:25;;;;;;;12.70;7.07;;;;;;;14.10;84.03;99367.03;4992633;28;20670;-87
2023/04/23 05:16:55;;;;;;;10.65;6.97;;;;;;;14.06;84.49;99370.19;4967070;28;20049;-87
2023/04/23 05:19:25;;;;;;;12.05;6.35;;;;;;;14.03;84.96;99370.53;4955911;28;20050;-87
2023/04/23 05:22:07;;;;;;;13.60;5.53;;;;;;;14.11;84.68;99367.84;4979649;28;20052;-87
2023/04/23 05:24:52;;;;;;;9.35;5.20;;;;;;;14.16;85.41;99370.03;4956974;28;20490;-87
2023/04/23 05:27:26;;;;;;;8.30;4.80;;;;;;;14.26;84.65;99365.31;4973071;28;20041;-87
2023/04/23 05:30:09;;;;;;;9.35;5.78;;;;;;;14.38;83.63;99371.97;4946166;28;20116;-88
2023/04/23 05:33:01;;;;;;;13.00;6.18;;;;;;;14.47;83.14;99370.91;4952557;28;20045;-87
2023/04/23 05:35:45;;;;;;;14.75;6.50;;;;;;;14.48;82.72;99377.13;4897910;28;20534;-87
2023/04/23 05:38:22;;;;;;;16.40;6.55;;;;;;;14.49;82.40;99379.59;4919100;28;20048;-88
2023/04/23 05:41:07;;;;;;;14.20;7.43;;;;;;;14.52;82.23;99378.44;4913034;28;20045;-88
2023/04/23 05:43:48;;;;;;;18.38;7.13;;;;;;;14.50;82.33;99375.94;4936567;28;20445;-88
2023/04/23 05:46:27;;;;;;;10.68;6.55;;;;;;;14.53;82.76;99382.81;4952157;28;20053;-87
2023/04/23 05:48:58;;;;;;;13.40;7.72;;;;;;;14.39;83.73;99380.81;5001565;28;20081;-87
2023/04/23 05:51:28;;;;;;;14.63;8.00;;;;;;;14.33;84.84;99380.50;4996230;28;20040;-86
2023/04/23 05:54:04;;;;;;;17.23;6.95;;;;;;;14.28;84.72;99379.34;4981012;28;20049;-88
2023/04/23 05:56:35;;;;;;;12.25;6.20;;;;;;;14.28;84.68;99376.69;4954263;28;20038;-88
2023/04/23 05:59:16;;;;;;;12.60;6.40;;;;;;;14.20;85.37;99368.69;4916130;28;20053;-88
2023/04/23 06:01:51;;;;;;;15.27;6.13;;;;;;;14.19;86.20;99383.03;4959980;28;20061;-87
2023/04/23 06:04:33;;;;;;;12.15;5.97;;;;;;;14.15;86.28;99377.19;4941718;28;20057;-88
2023/04/23 06:07:03;;;;;;;10.90;6.40;;;;;;;14.17;87.01;99390.38;4945463;28;21109;-88
2023/04/23 06:09:30;;;;;;;10.07;6.18;;;;;;;14.20;86.38;99388.22;4973818;28;20056;-89
2023/04/23 06:12:04;;;;;;;14.20;6.75;;;;;;;14.22;86.63;99391.53;4961433;28;20517;-87
2023/04/23 06:14:35;;;;;;;16.33;8.32;;;;;;;14.29;85.90;99381.00;4943610;28;20062;-87
2023/04/23 06:17:13;;;;;;;16.35;8.25;;;;;;;14.38;85.44;99379.97;4901085;28;20129;-87
2023/04/23 06:19:46;;;;;;;18.83;7.25;;;;;;;14.39;85.12;99383.47;4933042;28;20053;-86
2023/04/23 06:22:24;;;;;;;17.77;8.23;;;;;;;14.40;85.39;99380.66;4964817;28;20058;-86
2023/04/23 06:25:20;;;;;;;12.73;7.53;;;;;;;14.36;85.61;99387.31;4982752;28;20110;-87
2023/04/23 06:28:14;;;;;;;14.55;7.28;;;;;;;14.37;85.07;99388.16;4972171;28;20046;-87
2023/04/23 06:31:06;;;;;;;12.75;7.25;;;;;;;14.42;84.81;99389.31;4980593;28;20514;-87
2023/04/23 06:33:37;;;;;;;16.23;7.43;;;;;;;14.46;85.06;99397.81;4980881;28;20050;-86
2023/04/23 06:36:10;;;;;;;12.07;7.53;;;;;;;14.46;85.49;99395.16;4975293;28;20223;-87
2023/04/23 06:38:40;;;;;;;;;;;;;;;14.23;87.37;99392.38;5000520;28;20068;-87
2023/04/23 06:41:07;;;;;;;14.32;7.22;;;;;;;14.45;86.17;99385.47;4974007;28;19929;-87
2023/04/23 06:43:34;;;;;;;14.52;7.25;;;;;;;14.50;86.17;99375.09;4982234;28;20046;-88
2023/04/23 06:46:22;;;;;;;13.07;6.78;;;;;;;14.46;86.49;99379.13;4991356;28;20049;-87
2023/04/23 06:48:53;;;;;;;13.18;6.70;;;;;;;14.46;86.14;99376.44;4989348;28;20115;-87
2023/04/23 06:51:25;;;;;;;14.77;6.30;;;;;;;14.49;86.56;99381.44;4984350;28;20083;-86
2023/04/23 06:53:53;;;;;;;14.60;6.68;;;;;;;14.50;86.21;99378.63;5001175;28;20056;-87
2023/04/23 06:56:27;;;;;;;13.30;6.55;;;;;;;14.53;85.88;99375.63;4994776;28;20049;-87
2023/04/23 06:59:02;;;;;;;11.05;6.68;;;;;;;14.58;85.70;99366.25;4998347;28;20069;-88
2023/04/23 07:01:30;;;;;;;14.82;6.93;;;;;;;14.64;85.58;99365.56;4960254;28;20578;-87
2023/04/23 07:04:04;;;;;;;14.10;7.47;;;;;;;14.65;86.17;99373.38;4934745;28;20050;-87
2023/04/23 07:06:40;;;;;;;12.68;6.97;;;;;;;14.66;85.93;99367.06;4929139;28;20929;-88
2023/04/23 07:09:25;;;;;;;18.48;7.53;;;;;;;14.70;85.10;99362.19;4938092;28;20073;-87
2023/04/23 07:12:02;;;;;;;15.73;7.05;;;;;;;14.81;84.91;99364.50;4941928;28;20493;-87
2023/04/23 07:14:48;;;;;;;15.90;7.60;;;;;;;14.97;84.28;99366.25;4910270;28;20050;-86
2023/04/23 07:17:30;;;;;;;16.25;7.10;;;;;;;15.08;84.38;99368.50;4905058;28;20052;-87
2023/04/23 07:20:16;;;;;;;11.75;6.65;;;;;;;15.02;84.50;99357.69;4875406;28;20050;-87
2023/04/23 07:23:20;;;;;;;12.38;6.22;;;;;;;15.08;84.00;99362.31;4936541;28;20067;-86
2023/04/23 07:26:09;;;;;;;12.80;6.90;;;;;;;15.08;84.49;99362.31;4924803;28;20514;-87
2023/04/23 07:28:47;;;;;;;11.68;6.50;;;;;;;15.04;84.42;99353.84;4951242;28;20053;-87
2023/04/23 07:31:22;;;;;;;15.73;8.68;;;;;;;15.08;84.39;99362.31;4982918;28;20057;-87
2023/04/23 07:34:00;;;;;;;14.02;7.40;;;;;;;15.10;84.04;99363.00;4931489;28;20129;-86
2023/04/23 07:36:37;;;;;;;15.98;7.32;;;;;;;15.08;84.15;99354.31;4920750;28;20064;-88
2023/04/23 07:39:18;;;;;;;13.25;6.25;;;;;;;15.07;83.36;99339.28;4851673;28;20417;-87
2023/04/23 07:41:48;;;;;;;12.73;6.78;;;;;;;15.16;83.42;99344.41;4924319;28;20085;-88
2023/04/23 07:44:24;;;;;;;12.82;7.10;;;;;;;15.23;83.66;99338.34;4906598;28;20105;-87
2023/04/23 07:47:23;;;;;;;12.45;7.45;;;;;;;15.34;84.44;99333.41;4898919;28;20099;-87
2023/04/23 07:50:13;;;;;;;15.02;7.38;;;;;;;15.49;84.34;99327.25;4938257;28;20052;-87
2023/04/23 07:52:58;;;;;;;12.35;7.68;;;;;;;15.58;83.74;99328.88;4914251;28;20049;-87
2023/04/23 07:56:27;;;;;;;16.40;8.35;;;;;;;15.52;82.85;99325.06;4811306;28;20056;-87
2023/04/23 08:00:08;;;;;;;13.85;7.57;;;;;;;15.41;79.51;99330.84;4778687;29;20048;-86
2023/04/23 08:03:03;;;;;;;12.85;7.68;;;;;;;15.49;80.67;99335.28;4888488;28;20504;-87
2023/04/23 08:06:17;;;;;;;11.73;7.18;;;;;;;15.46;80.13;99338.34;4846270;29;20071;-86
2023/04/23 08:09:08;;;;;;;14.27;7.93;;;;;;;15.47;80.37;99330.13;4870342;28;20083;-87
2023/04/23 08:11:42;;;;;;;13.32;7.53;;;;;;;15.45;79.66;99329.47;4852535;28;20552;-87
2023/04/23 08:14:27;;;;;;;15.15;8.50;;;;;;;15.47;80.12;99324.78;4879594;28;20132;-87
2023/04/23 08:17:10;;;;;;;12.95;7.97;;;;;;;15.51;80.40;99330.59;4850452;29;20147;-87
2023/04/23 08:19:48;;;;;;;12.20;7.43;;;;;;;15.51;80.16;99322.56;4838421;29;20053;-86
2023/04/23 08:22:33;;;;;;;14.38;8.18;;;;;;;15.46;79.66;99320.44;4879812;28;20051;-87
2023/04/23 08:25:16;;;;;;;12.15;7.25;;;;;;;15.48;79.00;99321.09;4881968;28;20560;-86
2023/04/23 08:27:47;;;;;;;12.27;7.35;;;;;;;15.52;78.79;99317.03;4833515;28;20123;-87
2023/04/23 08:30:22;;;;;;;14.60;7.93;;;;;;;15.60;78.85;99322.31;4854471;29;20424;-87
2023/04/23 08:33:09;;;;;;;15.70;7.80;;;;;;;15.57;77.84;99314.66;4838928;28;20051;-86
2023/04/23 08:39:58;;;;;;;13.18;6.28;;;;;;;15.54;75.41;99312.31;4840937;28;20546;-88
2023/04/23 08:43:24;;;;;;;10.70;6.35;;;;;;;15.52;73.79;99303.66;4865102;28;20483;-88
2023/04/23 08:47:39;;;;;;;15.23;6.88;;;;;;;15.68;75.93;99307.22;4740807;29;20078;-87
2023/04/23 08:50:38;;;;;;;15.63;7.25;;;;;;;15.69;74.27;99296.34;4830499;28;20063;-88
2023/04/23 08:53:22;;;;;;;11.48;6.65;;;;;;;15.66;72.81;99299.34;4884878;28;20498;-87
2023/04/23 08:55:59;;;;;;;14.30;7.05;;;;;;;15.77;74.72;99284.72;4860699;28;20126;-88
2023/04/23 08:59:19;;;;;;;12.75;7.10;;;;;;;15.70;72.54;99294.47;4846600;28;20400;-87
2023/04/23 09:02:37;;;;;;;13.88;6.53;;;;;;;15.67;72.98;99284.13;4830864;28;20112;-87
2023/04/23 09:07:01;;;;;;;15.93;7.20;;;;;;;15.59;74.21;99288.53;4808771;28;20047;-87
2023/04/23 09:10:17;;;;;;;9.85;5.55;;;;;;;15.81;74.35;99294.06;4912641;28;20148;-87
2023/04/23 09:14:35;;;;;;;14.55;8.20;;;;;;;15.86;72.42;99283.63;4860721;28;20058;-88
2023/04/23 09:18:13;;;;;;;14.25;7.18;;;;;;;16.06;74.26;99281.25;4841432;28;20046;-88
2023/04/23 09:21:42;;;;;;;9.07;5.95;;;;;;;16.16;73.25;99276.44;4812829;28;20412;-87
2023/04/23 09:24:35;;;;;;;12.60;6.43;;;;;;;16.23;73.10;99274.69;4871355;28;20150;-88
2023/04/23 09:27:25;;;;;;;12.10;6.55;;;;;;;16.16;71.47;99262.22;4855408;28;20060;-88
2023/04/23 09:30:03;;;;;;;15.63;7.40;;;;;;;16.19;72.71;99256.47;4817285;28;20054;-87
2023/04/23 09:37:00;;;;;;;11.35;6.25;;;;;;;16.28;72.98;99255.34;4931606;23;1079632;-86
2023/04/23 09:39:26;;;;;;;14.55;6.43;;;;;;;16.40;71.25;99242.31;4940223;28;20070;-86
2023/04/23 09:41:53;;;;;;;10.27;6.22;;;;;;;16.37;70.77;99237.34;4954543;28;20054;-84
2023/04/23 09:44:25;;;;;;;12.80;6.35;;;;;;;16.39;70.88;99240.66;4946489;28;20688;-86
2023/04/23 09:46:52;;;;;;;11.32;7.00;;;;;;;16.38;71.28;99241.66;4927401;28;20039;-86
2023/04/23 09:49:18;;;;;;;11.20;6.65;;;;;;;16.37;70.94;99231.97;4952234;28;20049;-86
2023/04/23 09:51:47;;;;;;;17.73;6.85;;;;;;;16.37;70.54;99237.34;4945168;28;20042;-85
2023/04/23 09:54:15;;;;;;;10.50;5.82;;;;;;;16.33;69.59;99230.69;4954950;28;20046;-86
2023/04/23 09:56:42;;;;;;;9.88;7.05;;;;;;;16.33;69.85;99233.34;4957184;28;20078;-86
2023/04/23 09:59:28;;;;;;;9.90;5.90;;;;;;;16.24;68.12;99225.44;4952704;28;20617;-86
2023/04/23 10:02:14;;;;;;;12.07;6.78;;;;;;;16.38;70.04;99226.41;4967206;28;20046;-86
2023/04/23 10:04:41;;;;;;;8.43;5.95;;;;;;;16.45;70.27;99224.66;4930746;28;20074;-86
2023/04/23 10:07:12;;;;;;;11.48;5.65;;;;;;;16.49;70.25;99214.41;4944263;28;20133;-86
2023/04/23 10:09:42;;;;;;;24.13;7.55;;;;;;;16.50;70.33;99216.03;4941831;28;20521;-87
2023/04/23 10:12:09;;;;;;;9.70;6.28;;;;;;;16.47;69.91;99203.84;4943956;28;20047;-87
2023/04/23 10:14:58;;;;;;;12.07;6.22;;;;;;;16.46;70.01;99206.72;4955922;28;20130;-86
2023/04/23 10:17:25;;;;;;;9.27;5.68;;;;;;;16.50;70.46;99199.97;4940831;28;20061;-87
2023/04/23 10:19:53;;;;;;;9.70;6.30;;;;;;;16.57;70.50;99200.03;4931024;28;20047;-87
2023/04/23 10:22:20;;;;;;;10.00;5.32;;;;;;;16.61;70.38;99199.47;4943512;28;20054;-85
2023/04/23 10:24:51;;;;;;;8.88;5.47;;;;;;;16.63;69.41;99204.63;4939753;28;20409;-86
2023/04/23 10:27:20;;;;;;;7.95;5.03;;;;;;;16.70;69.14;99195.63;4933609;28;20051;-87
2023/04/23 10:29:49;;;;;;;7.43;5.50;;;;;;;16.76;70.08;99187.84;4929847;28;20039;-87
2023/04/23 10:32:17;;;;;;;11.10;5.60;;;;;;;16.82;69.58;99184.47;4902602;28;20884;-86
2023/04/23 10:34:44;;;;;;;11.27;4.72;;;;;;;16.88;68.22;99183.69;4939295;28;20082;-85
2023/04/23 10:37:11;;;;;;;6.90;4.55;;;;;;;16.86;67.02;99169.63;4955770;28;20134;-86
2023/04/23 10:39:39;;;;;;;15.35;4.75;;;;;;;16.86;66.30;99172.31;4944810;28;20126;-86
2023/04/23 10:42:06;;;;;;;9.00;4.78;;;;;;;16.89;66.26;99179.97;4975729;28;20837;-86
2023/04/23 10:44:37;;;;;;;9.65;5.38;;;;;;;16.89;64.53;99170.09;4961889;28;20070;-86
2023/04/23 10:47:11;;;;;;;11.05;4.70;;;;;;;16.92;64.26;99171.56;4947229;28;20050;-85
2023/04/23 10:49:38;;;;;;;9.45;6.15;;;;;;;16.96;65.74;99162.06;4942014;28;20044;-85
2023/04/23 10:52:16;;;;;;;13.98;5.28;;;;;;;16.93;64.07;99157.94;4940853;28;20056;-85
2023/04/23 10:54:55;;;;;;;9.10;4.50;;;;;;;17.02;64.98;99155.09;4948304;28;20047;-85
2023/04/23 10:57:22;;;;;;;9.35;4.30;;;;;;;17.04;65.03;99153.88;4947213;28;20109;-85
2023/04/23 10:59:54;;;;;;;8.18;4.75;;;;;;;17.05;64.02;99152.06;4954577;28;20102;-86
2023/04/23 11:02:24;;;;;;;11.10;4.72;;;;;;;17.07;63.82;99140.09;4956233;28;20047;-86
2023/04/23 11:04:56;;;;;;;7.55;4.18;;;;;;;17.09;63.95;99138.03;4960419;28;20070;-85
2023/04/23 11:07:30;;;;;;;7.32;5.18;;;;;;;17.07;63.22;99137.44;4945428;28;20124;-85
2023/04/23 11:10:13;;;;;;;18.15;5.88;;;;;;;16.99;60.72;99134.88;4946424;28;20070;-86
2023/04/23 11:12:40;;;;;;;9.38;4.20;;;;;;;17.11;63.63;99138.69;4912192;28;20129;-85
2023/04/23 11:15:14;;;;;;;16.00;4.72;;;;;;;17.08;61.91;99141.75;4960661;28;20043;-86
2023/04/23 11:17:46;;;;;;;8.48;4.53;;;;;;;17.13;62.93;99135.81;4932032;28;20058;-86
2023/04/23 11:20:20;;;;;;;9.93;4.60;;;;;;;17.17;63.03;99131.69;4963581;28;20129;-86
2023/04/23 11:22:49;;;;;;;10.80;6.25;;;;;;;17.23;63.38;99127.44;4960324;28;20193;-87
2023/04/23 11:25:23;;;;;;;11.27;5.78;;;;;;;17.19;62.41;99135.03;4944982;28;20049;-86
2023/04/23 11:27:52;;;;;;;8.63;4.43;;;;;;;17.29;63.49;99137.34;4960031;28;20146;-86
2023/04/23 11:30:24;;;;;;;7.85;4.90;;;;;;;17.32;63.36;99129.75;4956495;28;20223;-85
2023/04/23 11:32:52;;;;;;;9.65;5.30;;;;;;;17.38;63.27;99129.97;4957011;28;20047;-85
2023/04/23 11:35:21;;;;;;;10.32;4.53;;;;;;;17.41;62.75;99126.91;4947521;28;20058;-85
2023/04/23 11:37:48;;;;;;;6.72;3.90;;;;;;;17.42;62.24;99120.50;4971204;28;20110;-86
2023/04/23 11:40:19;;;;;;;7.20;4.38;;;;;;;17.45;62.16;99117.44;4957050;28;20058;-86
2023/04/23 11:42:48;;;;;;;7.57;3.97;;;;;;;17.43;61.82;99114.97;4974425;28;20043;-87
2023/04/23 11:45:19;;;;;;;6.68;3.80;;;;;;;17.47;62.10;99113.53;4942275;28;21034;-86
2023/04/23 11:47:49;;;;;;;9.88;5.60;;;;;;;17.52;62.55;99113.75;4925621;28;20141;-85
2023/04/23 11:50:20;;;;;;;14.82;6.80;;;;;;;17.54;62.04;99111.72;4947491;28;20046;-86
2023/04/23 11:52:47;;;;;;;12.23;5.60;;;;;;;17.57;62.46;99108.63;4950585;28;20051;-86
2023/04/23 11:55:15;;;;;;;8.75;4.55;;;;;;;17.59;62.08;99111.13;4956947;28;20045;-87
2023/04/23 11:57:47;;;;;;;9.93;4.35;;;;;;;17.57;61.70;99100.56;4958649;28;20051;-86
2023/04/23 12:00:17;;;;;;;10.63;5.00;;;;;;;17.57;61.27;99099.75;4952775;28;20126;-87
2023/04/23 12:02:54;;;;;;;8.77;4.32;;;;;;;17.55;60.78;99094.59;4936003;28;20561;-86
2023/04/23 12:05:22;;;;;;;9.00;4.32;;;;;;;17.57;60.93;99084.47;4960732;28;20110;-86
2023/04/23 12:07:52;;;;;;;9.75;5.70;;;;;;;17.64;61.12;99091.72;4947023;28;20053;-86
2023/04/23 12:10:20;;;;;;;11.98;6.70;;;;;;;17.66;60.81;99076.25;4958337;28;20035;-87
2023/04/23 12:12:51;;;;;;;15.32;6.82;;;;;;;17.63;59.70;99079.31;4948799;28;20495;-87
2023/04/23 12:15:18;;;;;;;9.20;4.75;;;;;;;17.66;61.06;99074.41;4945574;28;20057;-87
2023/04/23 12:17:50;;;;;;;10.80;4.88;;;;;;;17.65;60.38;99064.66;4946244;28;20748;-86